ěÝzenÝ letovÚho provozu ╚eskÚ republiky
Letiste: LKCV Aktualizace: 22.04.2024 01:59:39  UTC
 METAR LKCV 22.04. 02:00 ...
METAR LKCV 220200Z 31006KT 9999 -RA OVC025 02/M02 Q1020 NOSIG RMK BLU BLU=
 TAF LKCV 21.04. 23:00 ...
TAF LKCV 212300Z 2200/2300 30004KT 9999 BKN035      TEMPO 2202/2207 BKN020      BECMG 2208/2210 02006KT      BECMG 2216/2218 CAVOK=